createdAt,value
2023-05-23T00:01:49.827Z,14.00
2023-05-23T00:05:18.161Z,14.00
2023-05-23T00:07:45.797Z,13.90
2023-05-23T00:10:14.010Z,13.90
2023-05-23T00:12:42.692Z,13.80
2023-05-23T00:15:10.768Z,13.80
2023-05-23T00:17:42.816Z,13.70
2023-05-23T00:20:11.622Z,13.70
2023-05-23T00:22:44.951Z,13.70
2023-05-23T00:25:12.152Z,13.60
2023-05-23T00:27:39.342Z,13.60
2023-05-23T00:30:22.641Z,13.60
2023-05-23T00:32:49.858Z,13.60
2023-05-23T00:35:17.813Z,13.50
2023-05-23T00:37:52.060Z,13.40
2023-05-23T00:40:19.804Z,13.50
2023-05-23T00:42:48.267Z,13.50
2023-05-23T00:45:17.191Z,13.40
2023-05-23T00:47:46.002Z,13.30
2023-05-23T00:50:16.699Z,13.40
2023-05-23T00:52:46.586Z,13.30
2023-05-23T00:55:14.707Z,13.30
2023-05-23T00:57:44.716Z,13.40
2023-05-23T01:00:14.072Z,13.30
2023-05-23T01:02:46.362Z,13.30
2023-05-23T01:05:22.788Z,13.30
2023-05-23T01:07:51.822Z,13.30
2023-05-23T01:10:22.382Z,13.30
2023-05-23T01:12:52.330Z,13.30
2023-05-23T01:15:21.954Z,13.30
2023-05-23T01:17:49.207Z,13.20
2023-05-23T01:20:31.642Z,13.20
2023-05-23T01:23:19.102Z,13.20
2023-05-23T01:26:13.741Z,13.20
2023-05-23T01:28:55.970Z,13.10
2023-05-23T01:31:27.930Z,13.10
2023-05-23T01:33:56.747Z,13.10
2023-05-23T01:36:23.939Z,13.00
2023-05-23T01:38:52.404Z,13.00
2023-05-23T01:41:19.506Z,13.00
2023-05-23T01:43:47.640Z,13.00
2023-05-23T01:46:16.749Z,13.00
2023-05-23T01:49:12.600Z,13.00
2023-05-23T01:51:40.912Z,12.90
2023-05-23T01:54:08.389Z,12.90
2023-05-23T01:56:37.701Z,12.80
2023-05-23T01:59:05.073Z,12.70
2023-05-23T02:01:33.370Z,12.80
2023-05-23T02:04:00.848Z,12.70
2023-05-23T02:06:28.048Z,12.70
2023-05-23T02:08:55.225Z,12.70
2023-05-23T02:11:22.735Z,12.70
2023-05-23T02:13:50.568Z,12.70
2023-05-23T02:16:20.583Z,12.60
2023-05-23T02:18:49.328Z,12.50
2023-05-23T02:21:16.586Z,12.60
2023-05-23T02:23:43.760Z,12.60
2023-05-23T02:26:11.030Z,12.50
2023-05-23T02:28:38.177Z,12.50
2023-05-23T02:31:05.478Z,12.50
2023-05-23T02:33:32.705Z,12.50
2023-05-23T02:36:00.044Z,12.50
2023-05-23T02:38:27.603Z,12.50
2023-05-23T02:40:57.812Z,12.40
2023-05-23T02:43:25.206Z,12.50
2023-05-23T02:45:52.366Z,12.40
2023-05-23T02:48:19.558Z,12.40
2023-05-23T02:50:47.504Z,12.40
2023-05-23T02:53:14.887Z,12.40
2023-05-23T02:55:43.267Z,12.40
2023-05-23T02:58:13.025Z,12.40
2023-05-23T03:00:40.235Z,12.40
2023-05-23T03:03:07.800Z,12.40
2023-05-23T03:05:35.216Z,12.30
2023-05-23T03:08:02.978Z,12.20
2023-05-23T03:10:30.249Z,12.30
2023-05-23T03:12:57.608Z,12.30
2023-05-23T03:15:24.993Z,12.30
2023-05-23T03:17:52.293Z,12.40
2023-05-23T03:20:19.830Z,12.40
2023-05-23T03:22:47.188Z,12.40
2023-05-23T03:25:17.008Z,12.40
2023-05-23T03:27:44.280Z,12.40
2023-05-23T03:30:13.084Z,12.40
2023-05-23T03:32:41.606Z,12.50
2023-05-23T03:35:09.513Z,12.50
2023-05-23T03:37:43.599Z,12.50
2023-05-23T03:40:11.237Z,12.60
2023-05-23T03:42:39.897Z,12.60
2023-05-23T03:45:09.262Z,12.70
2023-05-23T03:47:36.754Z,12.70
2023-05-23T03:50:10.227Z,12.70
2023-05-23T03:52:46.381Z,12.70
2023-05-23T03:55:41.394Z,12.80
2023-05-23T03:58:08.974Z,12.80
2023-05-23T04:00:37.312Z,12.90
2023-05-23T04:03:09.107Z,12.90
2023-05-23T04:05:36.817Z,12.80
2023-05-23T04:08:04.124Z,12.80
2023-05-23T04:10:31.914Z,12.90
2023-05-23T04:13:01.727Z,12.90
2023-05-23T04:15:29.147Z,13.00
2023-05-23T04:18:09.909Z,13.00
2023-05-23T04:20:44.610Z,13.00
2023-05-23T04:23:12.629Z,13.00
2023-05-23T04:25:42.390Z,13.10
2023-05-23T04:28:35.360Z,13.80
2023-05-23T04:31:03.509Z,13.20
2023-05-23T04:33:34.515Z,13.20
2023-05-23T04:37:02.592Z,13.30
2023-05-23T04:39:31.063Z,13.40
2023-05-23T04:42:24.960Z,13.50
2023-05-23T04:45:19.725Z,13.60
2023-05-23T04:47:56.661Z,13.60
2023-05-23T04:50:51.395Z,13.70
2023-05-23T04:53:19.299Z,13.80
2023-05-23T04:55:46.680Z,13.80
2023-05-23T04:58:20.777Z,13.90
2023-05-23T05:00:50.684Z,14.00
2023-05-23T05:03:18.818Z,14.00
2023-05-23T05:05:47.525Z,14.10
2023-05-23T05:08:15.805Z,14.20
2023-05-23T05:10:47.426Z,14.20
2023-05-23T05:13:16.138Z,14.30
2023-05-23T05:15:57.435Z,14.30
2023-05-23T05:18:28.759Z,14.40
2023-05-23T05:21:49.992Z,14.50
2023-05-23T05:24:17.313Z,14.50
2023-05-23T05:26:44.556Z,14.60
2023-05-23T05:29:16.718Z,14.70
2023-05-23T05:31:45.458Z,14.80
2023-05-23T05:34:13.563Z,14.80
2023-05-23T05:36:48.145Z,14.90
2023-05-23T05:39:20.533Z,14.90
2023-05-23T05:41:48.456Z,15.00
2023-05-23T05:44:15.895Z,15.00
2023-05-23T05:46:44.122Z,15.10
2023-05-23T05:49:12.457Z,15.20
2023-05-23T05:51:40.337Z,15.30
2023-05-23T05:54:07.788Z,15.30
2023-05-23T05:56:35.079Z,15.50
2023-05-23T05:59:02.306Z,15.50
2023-05-23T06:01:30.995Z,15.70
2023-05-23T06:03:58.852Z,15.80
2023-05-23T06:06:26.514Z,15.80
2023-05-23T06:08:54.306Z,15.90
2023-05-23T06:11:22.678Z,16.00
2023-05-23T06:13:49.837Z,16.00
2023-05-23T06:16:23.554Z,16.00
2023-05-23T06:18:50.869Z,15.90
2023-05-23T06:21:18.587Z,15.90
2023-05-23T06:23:49.632Z,15.80
2023-05-23T06:26:16.961Z,15.80
2023-05-23T06:28:45.426Z,15.80
2023-05-23T06:31:13.089Z,15.80
2023-05-23T06:33:40.311Z,15.80
2023-05-23T06:36:07.664Z,15.80
2023-05-23T06:38:34.894Z,15.80
2023-05-23T06:41:12.375Z,15.90
2023-05-23T06:43:39.881Z,16.10
2023-05-23T06:46:20.433Z,16.30
2023-05-23T06:48:47.678Z,16.60
2023-05-23T06:51:14.930Z,16.80
2023-05-23T06:53:42.911Z,16.90
2023-05-23T06:56:10.965Z,16.90
2023-05-23T06:58:51.651Z,17.00
2023-05-23T07:01:32.530Z,17.00
2023-05-23T07:03:59.923Z,17.10
2023-05-23T07:06:29.798Z,17.20
2023-05-23T07:09:00.726Z,17.40
2023-05-23T07:11:28.365Z,17.70
2023-05-23T07:13:59.822Z,17.80
2023-05-23T07:16:40.311Z,18.00
2023-05-23T07:19:09.129Z,18.20
2023-05-23T07:21:42.919Z,18.20
2023-05-23T07:24:10.804Z,18.30
2023-05-23T07:26:38.543Z,18.30
2023-05-23T07:29:07.341Z,18.20
2023-05-23T07:31:34.954Z,18.20
2023-05-23T07:34:02.753Z,18.10
2023-05-23T07:36:50.464Z,18.10
2023-05-23T07:40:11.788Z,18.10
2023-05-23T07:42:39.211Z,18.10
2023-05-23T07:45:06.945Z,18.10
2023-05-23T07:47:36.496Z,18.20
2023-05-23T07:50:04.056Z,18.20
2023-05-23T07:52:32.219Z,18.20
2023-05-23T07:55:00.907Z,18.30
2023-05-23T07:57:28.778Z,18.30
2023-05-23T07:59:56.063Z,18.30
2023-05-23T08:02:25.997Z,18.40
2023-05-23T08:04:54.265Z,18.50
2023-05-23T08:07:22.209Z,18.50
2023-05-23T08:10:01.292Z,18.60
2023-05-23T08:12:28.648Z,18.50
2023-05-23T08:15:58.808Z,18.50
2023-05-23T08:18:31.075Z,18.40
2023-05-23T08:21:06.805Z,18.20
2023-05-23T08:23:34.699Z,18.20
2023-05-23T08:26:02.280Z,18.10
2023-05-23T08:28:57.977Z,18.10
2023-05-23T08:31:25.530Z,18.00
2023-05-23T08:33:52.955Z,18.00
2023-05-23T08:36:20.087Z,17.90
2023-05-23T08:38:48.004Z,17.90
2023-05-23T08:41:24.320Z,17.90
2023-05-23T08:43:59.357Z,17.80
2023-05-23T08:46:34.278Z,17.90
2023-05-23T08:49:05.894Z,17.90
2023-05-23T08:51:38.060Z,17.90
2023-05-23T08:54:15.187Z,17.90
2023-05-23T08:56:44.492Z,17.90
2023-05-23T08:59:15.366Z,17.90
2023-05-23T09:01:48.426Z,17.90
2023-05-23T09:04:43.325Z,17.90
2023-05-23T09:07:21.076Z,17.80
2023-05-23T09:10:40.941Z,17.60
2023-05-23T09:13:10.116Z,17.50
2023-05-23T09:15:39.116Z,17.40
2023-05-23T09:18:06.658Z,17.20
2023-05-23T09:20:34.827Z,17.20
2023-05-23T09:23:09.130Z,17.10
2023-05-23T09:25:47.399Z,17.10
2023-05-23T09:28:15.420Z,17.10
2023-05-23T09:30:43.234Z,17.10
2023-05-23T09:33:10.376Z,17.00
2023-05-23T09:35:44.746Z,17.00
2023-05-23T09:38:11.951Z,17.10
2023-05-23T09:40:45.636Z,17.10
2023-05-23T09:43:12.819Z,17.10
2023-05-23T09:45:39.960Z,17.10
2023-05-23T09:48:14.285Z,17.10
2023-05-23T09:50:42.051Z,17.10
2023-05-23T09:53:11.393Z,17.10
2023-05-23T09:55:40.535Z,17.10
2023-05-23T09:58:09.210Z,17.20
2023-05-23T10:00:36.611Z,17.20
2023-05-23T10:03:14.854Z,17.20
2023-05-23T10:05:48.906Z,17.20
2023-05-23T10:08:38.817Z,17.20
2023-05-23T10:11:15.119Z,17.20
2023-05-23T10:13:51.040Z,17.30
2023-05-23T10:16:39.020Z,17.30
2023-05-23T10:19:20.946Z,17.30
2023-05-23T10:21:54.662Z,17.40
2023-05-23T10:24:24.918Z,17.40
2023-05-23T10:26:53.618Z,17.50
2023-05-23T10:29:24.907Z,17.70
2023-05-23T10:31:53.433Z,17.70
2023-05-23T10:34:34.897Z,17.80
2023-05-23T10:37:15.240Z,18.00
2023-05-23T10:40:13.878Z,18.10
2023-05-23T10:42:46.874Z,18.20
2023-05-23T10:45:22.150Z,18.30
2023-05-23T10:47:51.442Z,18.40
2023-05-23T10:50:35.269Z,18.50
2023-05-23T10:53:06.315Z,18.60
2023-05-23T10:55:35.952Z,18.60
2023-05-23T10:58:17.672Z,18.60
2023-05-23T11:01:13.983Z,18.70
2023-05-23T11:03:47.107Z,18.80
2023-05-23T11:06:51.107Z,19.00
2023-05-23T11:09:21.597Z,19.10
2023-05-23T11:11:54.392Z,19.10
2023-05-23T11:14:38.386Z,19.20
2023-05-23T11:17:19.620Z,19.30
2023-05-23T11:20:17.200Z,19.30
2023-05-23T11:22:54.850Z,19.40
2023-05-23T11:26:22.627Z,19.50
2023-05-23T11:28:58.561Z,19.60
2023-05-23T11:31:25.941Z,19.70
2023-05-23T11:33:53.313Z,19.70
2023-05-23T11:36:30.260Z,19.80
2023-05-23T11:39:01.858Z,19.90
2023-05-23T11:41:33.939Z,20.00
2023-05-23T11:44:01.795Z,20.00
2023-05-23T11:46:29.061Z,19.90
2023-05-23T11:48:58.123Z,19.80
2023-05-23T11:51:25.214Z,19.70
2023-05-23T11:53:52.400Z,19.80
2023-05-23T11:56:19.521Z,19.80
2023-05-23T11:58:46.637Z,19.90
2023-05-23T12:01:14.102Z,19.90
2023-05-23T12:03:53.949Z,20.00
2023-05-23T12:06:25.415Z,19.90
2023-05-23T12:08:52.936Z,19.70
2023-05-23T12:11:20.104Z,19.60
2023-05-23T12:13:47.382Z,19.60
2023-05-23T12:16:15.999Z,19.60
2023-05-23T12:18:43.677Z,19.60
2023-05-23T12:21:18.113Z,19.50
2023-05-23T12:23:45.530Z,19.70
2023-05-23T12:26:12.624Z,19.70
2023-05-23T12:29:04.897Z,19.70
2023-05-23T12:31:33.340Z,19.80
2023-05-23T12:34:00.745Z,19.90
2023-05-23T12:36:32.821Z,19.90
2023-05-23T12:39:07.703Z,20.00
2023-05-23T12:41:35.236Z,19.90
2023-05-23T12:44:03.741Z,20.20
2023-05-23T12:46:31.189Z,20.30
2023-05-23T12:48:58.428Z,20.40
2023-05-23T12:51:25.694Z,20.40
2023-05-23T12:53:57.337Z,20.50
2023-05-23T12:56:24.566Z,20.40
2023-05-23T12:58:53.302Z,20.20
2023-05-23T13:01:20.842Z,20.10
2023-05-23T13:03:48.153Z,19.90
2023-05-23T13:06:15.282Z,19.90
2023-05-23T13:08:42.900Z,19.90
2023-05-23T13:11:10.194Z,20.00
2023-05-23T13:13:37.421Z,20.30
2023-05-23T13:16:04.592Z,20.40
2023-05-23T13:18:31.734Z,20.80
2023-05-23T13:25:26.968Z,21.10
2023-05-23T13:27:54.378Z,21.40
2023-05-23T13:30:23.896Z,21.50
2023-05-23T13:32:52.020Z,21.50
2023-05-23T13:35:19.558Z,21.70
2023-05-23T13:37:47.240Z,22.00
2023-05-23T13:40:19.080Z,22.30
2023-05-23T13:42:54.101Z,22.50
2023-05-23T13:45:23.320Z,22.40
2023-05-23T13:47:50.666Z,22.40
2023-05-23T13:50:18.502Z,22.20
2023-05-23T13:52:49.082Z,21.90
2023-05-23T13:55:24.441Z,21.70
2023-05-23T13:57:51.589Z,21.70
2023-05-23T14:00:18.883Z,21.60
2023-05-23T14:03:15.677Z,21.50
2023-05-23T14:05:42.776Z,21.40
2023-05-23T14:08:11.398Z,21.40
2023-05-23T14:10:38.656Z,21.30
2023-05-23T14:13:07.686Z,21.20
2023-05-23T14:16:14.800Z,21.00
2023-05-23T14:18:42.041Z,20.90
2023-05-23T14:21:09.103Z,20.80
2023-05-23T14:23:40.107Z,20.80
2023-05-23T14:26:07.498Z,20.70
2023-05-23T14:28:34.661Z,20.80
2023-05-23T14:31:01.781Z,20.90
2023-05-23T14:33:28.966Z,21.10
2023-05-23T14:36:50.521Z,21.10
2023-05-23T14:39:17.626Z,21.00
2023-05-23T14:41:46.893Z,20.90
2023-05-23T14:44:39.720Z,20.90
2023-05-23T14:47:06.897Z,20.80
2023-05-23T14:49:33.972Z,20.70
2023-05-23T14:52:01.215Z,20.60
2023-05-23T14:54:28.336Z,20.40
2023-05-23T14:56:58.046Z,20.40
2023-05-23T14:59:25.195Z,20.40
2023-05-23T15:01:52.449Z,20.40
2023-05-23T15:04:19.690Z,20.50
2023-05-23T15:06:47.453Z,20.70
2023-05-23T15:09:16.944Z,20.80
2023-05-23T15:11:46.112Z,20.90
2023-05-23T15:14:13.311Z,21.00
2023-05-23T15:16:40.403Z,21.00
2023-05-23T15:19:07.568Z,21.20
2023-05-23T15:21:34.789Z,21.30
2023-05-23T15:24:02.229Z,21.30
2023-05-23T15:26:29.412Z,21.30
2023-05-23T15:28:56.641Z,21.40
2023-05-23T15:31:23.833Z,21.30
2023-05-23T15:33:51.136Z,21.20
2023-05-23T15:36:18.419Z,21.20
2023-05-23T15:38:45.520Z,21.00
2023-05-23T15:41:12.919Z,20.80
2023-05-23T15:43:44.083Z,20.50
2023-05-23T15:46:11.273Z,20.20
2023-05-23T15:48:38.489Z,20.10
2023-05-23T15:51:32.837Z,20.00
2023-05-23T15:54:01.320Z,19.80
2023-05-23T15:56:28.829Z,19.70
2023-05-23T15:58:56.157Z,19.70
2023-05-23T16:01:23.641Z,19.60
2023-05-23T16:03:51.027Z,19.60
2023-05-23T16:06:18.214Z,19.60
2023-05-23T16:08:49.087Z,19.60
2023-05-23T16:11:16.352Z,19.60
2023-05-23T16:13:43.427Z,19.50
2023-05-23T16:16:10.667Z,19.50
2023-05-23T16:18:37.969Z,19.50
2023-05-23T16:21:05.318Z,19.40
2023-05-23T16:23:32.488Z,19.40
2023-05-23T16:25:59.591Z,19.30
2023-05-23T16:28:27.865Z,19.30
2023-05-23T16:30:56.537Z,19.30
2023-05-23T16:33:23.851Z,19.20
2023-05-23T16:35:51.098Z,19.20
2023-05-23T16:38:18.537Z,19.20
2023-05-23T16:40:45.642Z,19.10
2023-05-23T16:43:12.949Z,19.10
2023-05-23T16:45:41.970Z,19.10
2023-05-23T16:48:09.417Z,19.10
2023-05-23T16:50:36.584Z,19.00
2023-05-23T16:53:03.813Z,19.00
2023-05-23T16:55:30.893Z,19.10
2023-05-23T16:57:58.168Z,19.10
2023-05-23T17:00:26.938Z,19.20
2023-05-23T17:02:54.211Z,19.20
2023-05-23T17:05:21.653Z,19.40
2023-05-23T17:07:48.699Z,19.30
2023-05-23T17:10:17.627Z,19.30
2023-05-23T17:12:46.630Z,19.30
2023-05-23T17:15:13.764Z,19.30
2023-05-23T17:17:41.343Z,19.20
2023-05-23T17:20:11.724Z,19.20
2023-05-23T17:22:39.164Z,19.10
2023-05-23T17:25:06.681Z,19.10
2023-05-23T17:27:33.792Z,19.10
2023-05-23T17:30:04.578Z,19.00
2023-05-23T17:32:31.948Z,19.00
2023-05-23T17:34:59.161Z,18.90
2023-05-23T17:37:26.625Z,18.90
2023-05-23T17:39:56.667Z,18.80
2023-05-23T17:42:25.144Z,18.80
2023-05-23T17:44:52.255Z,18.70
2023-05-23T17:47:19.387Z,18.60
2023-05-23T17:49:46.461Z,18.50
2023-05-23T17:52:15.104Z,18.50
2023-05-23T17:54:42.558Z,18.40
2023-05-23T17:57:09.748Z,18.40
2023-05-23T17:59:37.238Z,18.40
2023-05-23T18:02:05.004Z,18.30
2023-05-23T18:04:32.148Z,18.30
2023-05-23T18:06:59.390Z,18.20
2023-05-23T18:09:26.561Z,18.20
2023-05-23T18:11:53.691Z,18.10
2023-05-23T18:14:21.416Z,18.10
2023-05-23T18:16:48.660Z,18.10
2023-05-23T18:19:16.308Z,18.00
2023-05-23T18:21:43.501Z,18.00
2023-05-23T18:24:11.849Z,18.00
2023-05-23T18:26:43.278Z,17.90
2023-05-23T18:29:11.165Z,17.90
2023-05-23T18:31:38.480Z,17.80
2023-05-23T18:34:06.017Z,17.80
2023-05-23T18:36:33.237Z,17.80
2023-05-23T18:39:00.453Z,17.70
2023-05-23T18:41:31.608Z,17.70
2023-05-23T18:43:58.792Z,17.60
2023-05-23T18:46:26.608Z,17.50
2023-05-23T18:48:53.929Z,17.50
2023-05-23T18:51:21.165Z,17.40
2023-05-23T18:53:48.353Z,17.40
2023-05-23T18:56:16.280Z,17.40
2023-05-23T18:58:47.111Z,17.30
2023-05-23T19:01:14.567Z,17.30
2023-05-23T19:03:41.712Z,17.30
2023-05-23T19:06:08.952Z,17.30
2023-05-23T19:08:36.091Z,17.30
2023-05-23T19:11:03.742Z,17.30
2023-05-23T19:13:31.021Z,17.30
2023-05-23T19:15:58.199Z,17.20
2023-05-23T19:18:25.403Z,17.20
2023-05-23T19:20:52.600Z,17.20
2023-05-23T19:23:19.693Z,17.10
2023-05-23T19:25:47.024Z,17.10
2023-05-23T19:28:17.102Z,17.10
2023-05-23T19:30:44.466Z,17.10
2023-05-23T19:33:11.970Z,17.00
2023-05-23T19:35:39.368Z,17.00
2023-05-23T19:38:06.626Z,17.00
2023-05-23T19:40:33.700Z,16.90
2023-05-23T19:43:00.973Z,16.90
2023-05-23T19:45:28.896Z,16.90
2023-05-23T19:47:57.911Z,16.80
2023-05-23T19:50:25.424Z,16.80
2023-05-23T19:52:52.558Z,16.80
2023-05-23T19:55:20.922Z,16.70
2023-05-23T19:57:47.975Z,16.70
2023-05-23T20:00:15.451Z,16.80
2023-05-23T20:02:42.845Z,16.70
2023-05-23T20:05:10.109Z,16.70
2023-05-23T20:07:37.708Z,16.60
2023-05-23T20:10:05.375Z,16.60
2023-05-23T20:12:32.554Z,16.60
2023-05-23T20:14:59.612Z,16.50
2023-05-23T20:17:26.738Z,16.50
2023-05-23T20:19:53.913Z,16.50
2023-05-23T20:22:21.037Z,16.40
2023-05-23T20:24:50.933Z,16.50
2023-05-23T20:27:18.084Z,16.40
2023-05-23T20:29:45.177Z,16.30
2023-05-23T20:32:12.264Z,16.40
2023-05-23T20:34:39.382Z,16.30
2023-05-23T20:37:06.507Z,16.20
2023-05-23T20:39:33.581Z,16.20
2023-05-23T20:42:01.319Z,16.20
2023-05-23T20:44:28.380Z,16.20
2023-05-23T20:46:57.210Z,16.20
2023-05-23T20:49:25.019Z,16.10
2023-05-23T20:51:52.097Z,16.10
2023-05-23T20:54:19.197Z,16.10
2023-05-23T20:57:38.383Z,16.10
2023-05-23T21:00:13.141Z,16.00
2023-05-23T21:02:41.588Z,16.00
2023-05-23T21:05:09.896Z,15.90
2023-05-23T21:07:37.378Z,15.90
2023-05-23T21:10:04.832Z,15.90
2023-05-23T21:12:32.081Z,15.90
2023-05-23T21:14:59.193Z,15.80
2023-05-23T21:17:26.554Z,15.80
2023-05-23T21:19:53.669Z,15.80
2023-05-23T21:22:20.782Z,15.80
2023-05-23T21:25:40.393Z,15.80
2023-05-23T21:28:07.498Z,15.80
2023-05-23T21:30:34.758Z,15.80
2023-05-23T21:33:01.953Z,15.80
2023-05-23T21:35:29.209Z,15.90
2023-05-23T21:38:02.810Z,15.90
2023-05-23T21:40:29.966Z,15.90
2023-05-23T21:42:57.021Z,15.80
2023-05-23T21:45:24.836Z,15.90
2023-05-23T21:47:51.943Z,15.80
2023-05-23T21:50:19.132Z,15.80
2023-05-23T21:52:46.219Z,15.80
2023-05-23T21:55:13.505Z,15.80
2023-05-23T21:57:40.541Z,15.70
2023-05-23T22:00:12.407Z,15.80
2023-05-23T22:02:44.461Z,15.80
2023-05-23T22:05:17.278Z,15.70
2023-05-23T22:07:44.548Z,15.80
2023-05-23T22:10:11.982Z,15.80
2023-05-23T22:12:39.109Z,15.80
2023-05-23T22:15:08.393Z,15.70
2023-05-23T22:17:35.476Z,15.80
2023-05-23T22:20:05.226Z,15.80
2023-05-23T22:22:32.516Z,15.80
2023-05-23T22:24:59.629Z,15.80
2023-05-23T22:27:28.412Z,15.70
2023-05-23T22:29:55.495Z,15.70
2023-05-23T22:32:22.631Z,15.70
2023-05-23T22:34:49.732Z,15.70
2023-05-23T22:37:17.006Z,15.60
2023-05-23T22:39:44.062Z,15.60
2023-05-23T22:42:12.235Z,15.60
2023-05-23T22:44:39.325Z,15.50
2023-05-23T22:47:06.620Z,15.60
2023-05-23T22:49:33.765Z,15.60
2023-05-23T22:52:01.351Z,15.50
2023-05-23T22:54:28.402Z,15.60
2023-05-23T22:56:55.919Z,15.60
2023-05-23T22:59:23.006Z,15.50
2023-05-23T23:01:51.237Z,15.50
2023-05-23T23:04:23.633Z,15.40
2023-05-23T23:06:53.856Z,15.40
2023-05-23T23:09:21.340Z,15.40
2023-05-23T23:11:48.489Z,15.50
2023-05-23T23:14:15.988Z,15.50
2023-05-23T23:16:43.380Z,15.40
2023-05-23T23:19:10.632Z,15.50
2023-05-23T23:21:38.006Z,15.50
2023-05-23T23:24:06.106Z,15.50
2023-05-23T23:26:33.199Z,15.40
2023-05-23T23:29:00.424Z,15.30
2023-05-23T23:31:27.620Z,15.30
2023-05-23T23:33:54.920Z,15.20
2023-05-23T23:36:22.066Z,15.20
2023-05-23T23:38:49.187Z,15.20
2023-05-23T23:41:16.351Z,15.10
2023-05-23T23:43:43.661Z,15.00
2023-05-23T23:46:11.430Z,14.90
2023-05-23T23:48:38.526Z,14.70
2023-05-23T23:51:06.955Z,14.90
2023-05-23T23:53:34.260Z,14.80
2023-05-23T23:56:01.392Z,14.80
2023-05-23T23:58:28.567Z,14.70
